createdAt,value
2022-12-03T00:00:40.683Z,11.00
2022-12-03T00:03:10.407Z,10.55
2022-12-03T00:05:48.371Z,11.55
2022-12-03T00:08:19.073Z,12.25
2022-12-03T00:10:48.749Z,13.68
2022-12-03T00:13:18.774Z,11.07
2022-12-03T00:15:48.423Z,9.82
2022-12-03T00:18:18.911Z,10.55
2022-12-03T00:20:49.746Z,10.82
2022-12-03T00:23:19.357Z,13.32
2022-12-03T00:25:48.845Z,12.30
2022-12-03T00:28:18.291Z,12.95
2022-12-03T00:30:48.934Z,14.05
2022-12-03T00:33:18.544Z,10.23
2022-12-03T00:35:48.767Z,13.48
2022-12-03T00:38:18.783Z,10.15
2022-12-03T00:40:48.374Z,11.10
2022-12-03T00:43:17.947Z,11.93
2022-12-03T00:45:47.862Z,10.23
2022-12-03T00:48:17.857Z,9.77
2022-12-03T00:50:47.430Z,11.73
2022-12-03T00:53:16.855Z,14.18
2022-12-03T00:55:46.911Z,12.75
2022-12-03T00:58:16.895Z,11.95
2022-12-03T01:00:46.875Z,10.82
2022-12-03T01:03:16.516Z,11.98
2022-12-03T01:05:46.502Z,10.43
2022-12-03T01:08:16.608Z,11.43
2022-12-03T01:10:47.102Z,13.82
2022-12-03T01:13:16.748Z,13.18
2022-12-03T01:15:46.234Z,13.80
2022-12-03T01:18:15.805Z,13.73
2022-12-03T01:20:45.408Z,14.13
2022-12-03T01:23:16.010Z,14.45
2022-12-03T01:25:48.179Z,12.95
2022-12-03T01:28:17.722Z,14.45
2022-12-03T01:31:06.057Z,20.50
2022-12-03T01:33:36.057Z,14.75
2022-12-03T01:36:06.167Z,17.33
2022-12-03T01:38:35.702Z,15.82
2022-12-03T01:41:08.608Z,17.27
2022-12-03T01:43:41.125Z,16.02
2022-12-03T01:46:11.428Z,19.00
2022-12-03T01:48:41.462Z,17.25
2022-12-03T01:51:11.303Z,18.42
2022-12-03T01:53:41.183Z,18.50
2022-12-03T01:56:10.908Z,19.17
2022-12-03T01:58:40.783Z,17.10
2022-12-03T02:01:17.349Z,19.83
2022-12-03T02:03:47.246Z,20.00
2022-12-03T02:06:18.529Z,21.50
2022-12-03T02:08:48.329Z,18.83
2022-12-03T02:11:18.217Z,19.63
2022-12-03T02:13:48.433Z,19.95
2022-12-03T02:16:18.486Z,19.85
2022-12-03T02:18:51.425Z,22.27
2022-12-03T02:21:27.883Z,21.35
2022-12-03T02:23:59.506Z,21.38
2022-12-03T02:26:31.069Z,22.10
2022-12-03T02:29:00.735Z,22.45
2022-12-03T02:31:31.357Z,22.58
2022-12-03T02:34:01.950Z,20.67
2022-12-03T02:36:33.225Z,23.40
2022-12-03T02:39:03.049Z,25.02
2022-12-03T02:41:50.945Z,24.48
2022-12-03T02:44:20.544Z,23.23
2022-12-03T02:46:50.508Z,24.65
2022-12-03T02:49:21.085Z,26.73
2022-12-03T02:51:52.311Z,23.63
2022-12-03T02:54:22.563Z,26.17
2022-12-03T02:56:52.550Z,23.23
2022-12-03T02:59:22.197Z,21.05
2022-12-03T03:01:53.616Z,22.08
2022-12-03T03:04:25.990Z,20.67
2022-12-03T03:06:55.851Z,19.00
2022-12-03T03:09:25.886Z,20.23
2022-12-03T03:11:56.726Z,23.02
2022-12-03T03:14:26.368Z,23.10
2022-12-03T03:16:59.093Z,18.83
2022-12-03T03:19:29.901Z,18.33
2022-12-03T03:22:01.240Z,21.33
2022-12-03T03:24:31.054Z,19.02
2022-12-03T03:27:00.506Z,21.92
2022-12-03T03:29:29.937Z,16.25
2022-12-03T03:32:00.266Z,18.55
2022-12-03T03:34:30.375Z,17.15
2022-12-03T03:36:59.925Z,16.55
2022-12-03T03:39:29.396Z,14.75
2022-12-03T03:41:59.310Z,16.20
2022-12-03T03:44:29.756Z,12.95
2022-12-03T03:46:59.799Z,15.10
2022-12-03T03:49:29.819Z,13.50
2022-12-03T03:52:00.185Z,16.42
2022-12-03T03:54:29.721Z,19.05
2022-12-03T03:56:59.454Z,15.73
2022-12-03T03:59:29.379Z,14.93
2022-12-03T04:01:59.033Z,14.98
2022-12-03T04:04:29.369Z,17.05
2022-12-03T04:06:58.945Z,16.60
2022-12-03T04:09:28.418Z,13.07
2022-12-03T04:12:17.728Z,14.07
2022-12-03T04:14:47.479Z,16.10
2022-12-03T04:17:18.159Z,14.43
2022-12-03T04:19:48.481Z,14.20
2022-12-03T04:22:36.306Z,13.68
2022-12-03T04:25:24.938Z,12.32
2022-12-03T04:28:14.422Z,14.07
2022-12-03T04:30:44.672Z,12.77
2022-12-03T04:33:32.902Z,15.05
2022-12-03T04:36:02.654Z,13.10
2022-12-03T04:38:32.409Z,14.75
2022-12-03T04:41:05.227Z,13.30
2022-12-03T04:43:35.759Z,10.75
2022-12-03T04:46:09.464Z,9.88
2022-12-03T04:48:39.779Z,11.20
2022-12-03T04:51:09.438Z,12.15
2022-12-03T04:53:44.748Z,11.10
2022-12-03T04:56:16.577Z,9.45
2022-12-03T04:58:48.886Z,11.20
2022-12-03T05:01:19.257Z,10.10
2022-12-03T05:03:49.351Z,10.77
2022-12-03T05:06:18.887Z,10.48
2022-12-03T05:08:48.398Z,10.50
2022-12-03T05:11:18.315Z,8.52
2022-12-03T05:13:47.930Z,11.15
2022-12-03T05:16:17.890Z,9.45
2022-12-03T05:18:47.660Z,10.45
2022-12-03T05:21:17.163Z,9.52
2022-12-03T05:23:47.278Z,10.15
2022-12-03T05:26:17.836Z,9.48
2022-12-03T05:28:47.744Z,8.43
2022-12-03T05:31:17.240Z,9.85
2022-12-03T05:33:46.748Z,9.50
2022-12-03T05:36:16.960Z,10.00
2022-12-03T05:38:47.041Z,9.55
2022-12-03T05:41:34.776Z,8.73
2022-12-03T05:44:04.463Z,7.70
2022-12-03T05:46:34.330Z,8.25
2022-12-03T05:49:03.930Z,8.07
2022-12-03T05:51:33.464Z,8.00
2022-12-03T05:54:02.952Z,9.13
2022-12-03T05:56:32.993Z,8.88
2022-12-03T05:59:02.523Z,7.72
2022-12-03T06:01:32.459Z,7.05
2022-12-03T06:04:02.658Z,7.22
2022-12-03T06:06:32.232Z,7.40
2022-12-03T06:09:02.155Z,6.85
2022-12-03T06:11:34.620Z,5.82
2022-12-03T06:14:04.998Z,6.38
2022-12-03T06:16:34.933Z,5.57
2022-12-03T06:19:04.510Z,6.68
2022-12-03T06:21:34.084Z,6.20
2022-12-03T06:24:04.171Z,7.10
2022-12-03T06:26:34.239Z,6.10
2022-12-03T06:29:03.777Z,5.40
2022-12-03T06:31:33.251Z,6.90
2022-12-03T06:34:03.200Z,5.65
2022-12-03T06:36:32.729Z,6.45
2022-12-03T06:39:02.679Z,6.70
2022-12-03T06:41:32.751Z,7.43
2022-12-03T06:44:02.419Z,7.25
2022-12-03T06:46:32.526Z,5.18
2022-12-03T06:49:02.158Z,5.82
2022-12-03T06:51:31.631Z,8.73
2022-12-03T06:54:01.583Z,5.40
2022-12-03T06:56:36.739Z,7.25
2022-12-03T06:59:07.853Z,5.15
2022-12-03T07:01:37.802Z,5.60
2022-12-03T07:04:07.476Z,5.00
2022-12-03T07:06:37.031Z,5.68
2022-12-03T07:09:06.968Z,5.05
2022-12-03T07:11:40.794Z,4.78
2022-12-03T07:14:12.347Z,5.05
2022-12-03T07:16:43.966Z,4.65
2022-12-03T07:19:14.259Z,4.88
2022-12-03T07:21:43.912Z,4.90
2022-12-03T07:24:13.803Z,5.57
2022-12-03T07:26:43.876Z,8.70
2022-12-03T07:29:14.672Z,4.95
2022-12-03T07:31:44.258Z,4.15
2022-12-03T07:34:14.985Z,7.10
2022-12-03T07:36:45.086Z,3.92
2022-12-03T07:39:15.077Z,8.98
2022-12-03T07:41:45.033Z,7.03
2022-12-03T07:44:15.549Z,5.20
2022-12-03T07:46:45.108Z,4.28
2022-12-03T07:49:15.000Z,3.53
2022-12-03T07:51:47.337Z,4.88
2022-12-03T07:54:17.807Z,8.07
2022-12-03T07:56:51.149Z,7.05
2022-12-03T07:59:21.266Z,4.72
2022-12-03T08:01:50.753Z,4.00
2022-12-03T08:04:21.917Z,6.18
2022-12-03T08:06:51.707Z,4.93
2022-12-03T08:09:21.762Z,6.55
2022-12-03T08:11:51.821Z,9.82
2022-12-03T08:14:22.417Z,8.30
2022-12-03T08:16:52.488Z,9.27
2022-12-03T08:19:24.013Z,7.07
2022-12-03T08:21:58.076Z,7.55
2022-12-03T08:24:31.475Z,6.72
2022-12-03T08:27:01.524Z,7.78
2022-12-03T08:29:32.365Z,5.75
2022-12-03T08:32:02.196Z,5.97
2022-12-03T08:34:32.757Z,6.50
2022-12-03T08:37:10.795Z,8.15
2022-12-03T08:39:48.196Z,7.07
2022-12-03T08:42:36.715Z,9.05
2022-12-03T08:45:25.022Z,6.65
2022-12-03T08:47:54.719Z,6.68
2022-12-03T08:50:34.330Z,5.60
2022-12-03T08:53:23.925Z,7.97
2022-12-03T08:55:54.448Z,5.68
2022-12-03T08:58:25.996Z,5.22
2022-12-03T09:01:14.606Z,4.88
2022-12-03T09:03:55.349Z,7.70
2022-12-03T09:06:25.576Z,7.20
2022-12-03T09:08:56.090Z,9.68
2022-12-03T09:11:25.950Z,6.40
2022-12-03T09:13:55.385Z,5.57
2022-12-03T09:16:24.902Z,5.55
2022-12-03T09:18:55.124Z,6.72
2022-12-03T09:21:25.175Z,4.50
2022-12-03T09:23:54.739Z,7.28
2022-12-03T09:26:28.968Z,9.57
2022-12-03T09:28:58.605Z,16.02
2022-12-03T09:31:28.227Z,17.52
2022-12-03T09:33:57.815Z,19.98
2022-12-03T09:36:27.800Z,16.23
2022-12-03T09:38:57.497Z,11.07
2022-12-03T09:41:27.114Z,21.60
2022-12-03T09:44:05.319Z,8.15
2022-12-03T09:46:38.419Z,8.02
2022-12-03T09:49:15.299Z,15.70
2022-12-03T09:51:45.540Z,6.85
2022-12-03T09:54:20.496Z,8.70
2022-12-03T09:56:50.397Z,7.38
2022-12-03T09:59:19.881Z,6.75
2022-12-03T10:01:50.864Z,8.02
2022-12-03T10:04:20.937Z,6.68
2022-12-03T10:06:51.070Z,7.88
2022-12-03T10:09:29.710Z,4.78
2022-12-03T10:11:59.630Z,7.72
2022-12-03T10:14:29.132Z,7.60
2022-12-03T10:16:59.729Z,6.30
2022-12-03T10:19:31.215Z,7.07
2022-12-03T10:22:01.407Z,6.50
2022-12-03T10:24:37.913Z,7.03
2022-12-03T10:27:28.010Z,6.30
2022-12-03T10:30:01.923Z,4.88
2022-12-03T10:32:44.548Z,5.53
2022-12-03T10:35:15.374Z,5.68
2022-12-03T10:38:04.790Z,5.95
2022-12-03T10:40:36.657Z,5.70
2022-12-03T10:43:21.722Z,8.32
2022-12-03T10:46:03.818Z,6.05
2022-12-03T10:48:34.873Z,7.50
2022-12-03T10:51:06.600Z,5.65
2022-12-03T10:53:37.070Z,5.32
2022-12-03T10:56:08.261Z,4.10
2022-12-03T10:58:39.431Z,3.65
2022-12-03T11:01:22.522Z,5.38
2022-12-03T11:03:53.108Z,4.60
2022-12-03T11:06:25.360Z,5.00
2022-12-03T11:09:00.449Z,5.43
2022-12-03T11:11:34.534Z,6.10
2022-12-03T11:14:05.149Z,8.40
2022-12-03T11:16:43.800Z,8.25
2022-12-03T11:19:18.264Z,7.82
2022-12-03T11:22:07.673Z,11.07
2022-12-03T11:24:37.678Z,10.23
2022-12-03T11:27:08.125Z,10.18
2022-12-03T11:29:56.231Z,10.23
2022-12-03T11:32:45.435Z,13.40
2022-12-03T11:35:28.022Z,11.45
2022-12-03T11:37:57.573Z,12.65
2022-12-03T11:40:34.751Z,14.27
2022-12-03T11:43:15.644Z,16.70
2022-12-03T11:45:45.653Z,17.02
2022-12-03T11:48:16.453Z,16.33
2022-12-03T11:50:47.443Z,18.33
2022-12-03T11:53:24.363Z,21.25
2022-12-03T11:56:16.848Z,19.67
2022-12-03T11:58:47.125Z,20.80
2022-12-03T12:01:17.436Z,20.08
2022-12-03T12:03:50.726Z,20.33
2022-12-03T12:06:21.718Z,21.00
2022-12-03T12:08:53.517Z,21.30
2022-12-03T12:11:27.978Z,26.63
2022-12-03T12:13:58.941Z,23.67
2022-12-03T12:16:51.133Z,26.92
2022-12-03T12:19:40.410Z,27.58
2022-12-03T12:22:17.092Z,29.00
2022-12-03T12:24:47.741Z,26.80
2022-12-03T12:27:31.903Z,29.15
2022-12-03T12:30:03.245Z,26.50
2022-12-03T12:32:34.164Z,29.77
2022-12-03T12:35:24.552Z,31.83
2022-12-03T12:38:00.113Z,29.63
2022-12-03T12:40:33.504Z,30.17
2022-12-03T12:43:11.545Z,29.27
2022-12-03T12:45:44.377Z,30.08
2022-12-03T12:48:17.742Z,30.92
2022-12-03T12:50:49.470Z,28.67
2022-12-03T12:53:26.438Z,30.08
2022-12-03T12:56:00.617Z,28.08
2022-12-03T12:58:32.828Z,30.88
2022-12-03T13:01:06.083Z,30.00
2022-12-03T13:03:36.569Z,27.95
2022-12-03T13:06:06.800Z,25.48
2022-12-03T13:08:47.069Z,36.60
2022-12-03T13:11:24.552Z,30.70
2022-12-03T13:13:54.521Z,31.27
2022-12-03T13:16:24.568Z,29.17
2022-12-03T13:18:57.693Z,28.85
2022-12-03T13:21:40.476Z,31.02
2022-12-03T13:24:28.736Z,29.73
2022-12-03T13:26:58.402Z,29.63
2022-12-03T13:29:28.835Z,30.17
2022-12-03T13:32:01.150Z,27.88
2022-12-03T13:34:34.439Z,32.08
2022-12-03T13:37:04.651Z,29.40
2022-12-03T13:39:36.238Z,29.05
2022-12-03T13:42:29.049Z,30.33
2022-12-03T13:44:59.259Z,30.83
2022-12-03T13:47:29.355Z,32.22
2022-12-03T13:50:00.558Z,31.00
2022-12-03T13:52:32.646Z,31.63
2022-12-03T13:55:03.351Z,32.88
2022-12-03T13:57:33.573Z,31.67
2022-12-03T14:00:03.607Z,31.17
2022-12-03T14:02:42.885Z,30.55
2022-12-03T14:05:13.287Z,29.83
2022-12-03T14:07:43.842Z,31.35
2022-12-03T14:10:14.382Z,28.60
2022-12-03T14:12:44.349Z,33.00
2022-12-03T14:15:13.831Z,33.03
2022-12-03T14:17:43.496Z,28.85
2022-12-03T14:20:17.383Z,30.67
2022-12-03T14:22:47.841Z,31.38
2022-12-03T14:25:17.657Z,29.30
2022-12-03T14:27:47.829Z,32.13
2022-12-03T14:30:17.546Z,34.03
2022-12-03T14:32:47.511Z,30.63
2022-12-03T14:35:17.344Z,28.77
2022-12-03T14:37:47.349Z,31.65
2022-12-03T14:40:21.352Z,31.55
2022-12-03T14:42:52.349Z,29.02
2022-12-03T14:45:24.192Z,29.23
2022-12-03T14:47:54.078Z,29.20
2022-12-03T14:50:23.779Z,32.15
2022-12-03T14:52:53.360Z,30.92
2022-12-03T14:55:22.866Z,28.60
2022-12-03T14:57:52.637Z,32.75
2022-12-03T15:00:24.383Z,30.75
2022-12-03T15:02:54.847Z,31.35
2022-12-03T15:05:28.859Z,30.95
2022-12-03T15:07:59.752Z,29.13
2022-12-03T15:10:29.332Z,28.80
2022-12-03T15:12:59.777Z,28.60
2022-12-03T15:15:35.636Z,30.50
2022-12-03T15:18:06.129Z,27.92
2022-12-03T15:20:36.785Z,30.10
2022-12-03T15:23:09.900Z,30.45
2022-12-03T15:25:44.484Z,31.75
2022-12-03T15:28:14.136Z,29.23
2022-12-03T15:30:43.768Z,31.33
2022-12-03T15:33:13.384Z,32.35
2022-12-03T15:35:43.991Z,28.65
2022-12-03T15:38:15.541Z,32.72
2022-12-03T15:40:45.286Z,29.67
2022-12-03T15:43:14.782Z,31.42
2022-12-03T15:45:44.915Z,29.30
2022-12-03T15:48:14.921Z,30.75
2022-12-03T15:50:44.954Z,32.75
2022-12-03T15:53:15.018Z,30.73
2022-12-03T15:55:47.500Z,30.67
2022-12-03T15:58:17.567Z,33.47
2022-12-03T16:00:47.601Z,32.08
2022-12-03T16:03:17.754Z,30.20
2022-12-03T16:05:50.631Z,32.47
2022-12-03T16:08:20.540Z,32.70
2022-12-03T16:10:50.627Z,34.70
2022-12-03T16:13:20.488Z,30.83
2022-12-03T16:15:50.480Z,31.13
2022-12-03T16:18:20.550Z,32.78
2022-12-03T16:20:50.774Z,35.38
2022-12-03T16:23:20.849Z,31.23
2022-12-03T16:25:50.888Z,33.47
2022-12-03T16:28:21.008Z,32.67
2022-12-03T16:30:50.741Z,34.25
2022-12-03T16:33:27.083Z,34.35
2022-12-03T16:35:58.151Z,35.88
2022-12-03T16:38:27.732Z,34.13
2022-12-03T16:40:57.367Z,32.03
2022-12-03T16:43:27.348Z,33.90
2022-12-03T16:46:04.163Z,32.05
2022-12-03T16:48:33.792Z,32.42
2022-12-03T16:51:03.773Z,34.67
2022-12-03T16:53:33.918Z,31.25
2022-12-03T16:56:04.131Z,34.20
2022-12-03T16:58:34.515Z,35.35
2022-12-03T17:01:04.787Z,33.38
2022-12-03T17:03:34.983Z,35.08
2022-12-03T17:06:04.600Z,36.97
2022-12-03T17:08:34.192Z,32.10
2022-12-03T17:11:05.247Z,37.50
2022-12-03T17:13:35.428Z,35.40
2022-12-03T17:16:06.216Z,29.67
2022-12-03T17:18:39.172Z,36.10
2022-12-03T17:21:08.779Z,42.17
2022-12-03T17:23:38.858Z,35.50
2022-12-03T17:26:08.473Z,39.45
2022-12-03T17:28:38.565Z,34.15
2022-12-03T17:31:11.137Z,32.22
2022-12-03T17:33:43.944Z,35.80
2022-12-03T17:36:13.487Z,34.47
2022-12-03T17:38:43.048Z,32.17
2022-12-03T17:41:13.044Z,30.65
2022-12-03T17:43:42.704Z,31.45
2022-12-03T17:46:12.324Z,34.80
2022-12-03T17:48:43.216Z,35.22
2022-12-03T17:51:13.208Z,33.10
2022-12-03T17:53:43.325Z,32.03
2022-12-03T17:56:13.030Z,32.72
2022-12-03T17:58:42.513Z,34.80
2022-12-03T18:01:12.737Z,35.55
2022-12-03T18:03:42.826Z,29.75
2022-12-03T18:06:12.510Z,28.85
2022-12-03T18:08:42.110Z,29.40
2022-12-03T18:11:12.084Z,29.55
2022-12-03T18:13:44.702Z,32.50
2022-12-03T18:16:14.231Z,32.00
2022-12-03T18:18:44.265Z,31.45
2022-12-03T18:21:14.676Z,36.67
2022-12-03T18:23:44.230Z,31.48
2022-12-03T18:26:14.254Z,35.70
2022-12-03T18:28:44.255Z,29.13
2022-12-03T18:31:17.715Z,34.00
2022-12-03T18:36:19.979Z,31.77
2022-12-03T18:38:52.980Z,36.42
2022-12-03T18:41:23.964Z,36.17
2022-12-03T18:43:55.210Z,35.10
2022-12-03T18:46:51.746Z,37.83
2022-12-03T18:49:14.735Z,33.30
2022-12-03T18:51:44.621Z,36.50
2022-12-03T18:54:15.276Z,32.63
2022-12-03T18:56:44.879Z,33.00
2022-12-03T18:59:14.809Z,35.50
2022-12-03T19:01:44.991Z,33.60
2022-12-03T19:04:15.498Z,34.17
2022-12-03T19:06:45.067Z,34.70
2022-12-03T19:09:14.952Z,33.55
2022-12-03T19:11:44.452Z,35.42
2022-12-03T19:14:14.438Z,37.17
2022-12-03T19:16:45.415Z,33.72
2022-12-03T19:19:15.197Z,32.75
2022-12-03T19:21:45.250Z,32.50
2022-12-03T19:24:24.245Z,33.45
2022-12-03T19:26:56.511Z,34.67
2022-12-03T19:29:27.011Z,36.47
2022-12-03T19:31:56.937Z,35.38
2022-12-03T19:34:27.056Z,37.50
2022-12-03T19:36:56.663Z,35.03
2022-12-03T19:39:26.248Z,37.00
2022-12-03T19:41:56.291Z,36.55
2022-12-03T19:44:29.183Z,38.03
2022-12-03T19:46:58.807Z,39.40
2022-12-03T19:49:28.875Z,38.22
2022-12-03T19:51:59.263Z,36.25
2022-12-03T19:54:31.461Z,36.40
2022-12-03T19:57:01.088Z,37.72
2022-12-03T19:59:31.170Z,39.05
2022-12-03T20:02:00.963Z,40.28
2022-12-03T20:04:30.532Z,38.97
2022-12-03T20:07:00.147Z,37.00
2022-12-03T20:09:29.678Z,39.95
2022-12-03T20:11:59.213Z,38.03
2022-12-03T20:14:28.795Z,39.15
2022-12-03T20:16:58.777Z,37.22
2022-12-03T20:19:29.029Z,34.28
2022-12-03T20:22:02.551Z,37.67
2022-12-03T20:24:33.441Z,34.00
2022-12-03T20:27:03.017Z,34.30
2022-12-03T20:29:32.966Z,36.33
2022-12-03T20:32:05.128Z,35.45
2022-12-03T20:34:37.121Z,32.47
2022-12-03T20:37:07.103Z,35.67
2022-12-03T20:39:36.608Z,34.05
2022-12-03T20:42:06.115Z,32.67
2022-12-03T20:44:35.907Z,35.47
2022-12-03T20:47:06.015Z,33.47
2022-12-03T20:49:35.554Z,35.15
2022-12-03T20:52:05.588Z,34.72
2022-12-03T20:54:35.178Z,33.03
2022-12-03T20:57:05.330Z,33.03
2022-12-03T20:59:34.988Z,31.23
2022-12-03T21:02:05.951Z,33.40
2022-12-03T21:04:37.004Z,31.88
2022-12-03T21:07:07.214Z,32.55
2022-12-03T21:09:36.745Z,33.50
2022-12-03T21:12:07.909Z,31.58
2022-12-03T21:14:37.949Z,31.92
2022-12-03T21:17:09.205Z,32.22
2022-12-03T21:19:40.498Z,31.75
2022-12-03T21:22:10.602Z,33.10
2022-12-03T21:24:43.402Z,32.65
2022-12-03T21:27:17.029Z,33.88
2022-12-03T21:29:51.072Z,35.40
2022-12-03T21:32:21.384Z,33.90
2022-12-03T21:34:51.625Z,32.00
2022-12-03T21:37:21.261Z,31.08
2022-12-03T21:39:50.741Z,31.55
2022-12-03T21:42:36.058Z,32.65
2022-12-03T21:45:07.278Z,30.05
2022-12-03T21:47:39.200Z,29.70
2022-12-03T21:50:09.906Z,30.80
2022-12-03T21:52:39.502Z,32.20
2022-12-03T21:55:09.398Z,30.33
2022-12-03T21:57:39.359Z,28.85
2022-12-03T22:00:09.459Z,31.05
2022-12-03T22:02:43.212Z,31.52
2022-12-03T22:05:13.247Z,30.88
2022-12-03T22:07:43.419Z,31.92
2022-12-03T22:10:13.403Z,30.60
2022-12-03T22:12:43.530Z,26.38
2022-12-03T22:15:18.489Z,26.17
2022-12-03T22:17:49.519Z,30.65
2022-12-03T22:20:19.599Z,29.70
2022-12-03T22:22:49.666Z,27.85
2022-12-03T22:25:19.782Z,33.92
2022-12-03T22:27:49.367Z,26.70
2022-12-03T22:30:19.323Z,27.02
2022-12-03T22:32:48.847Z,29.52
2022-12-03T22:35:18.353Z,30.20
2022-12-03T22:37:47.906Z,29.70
2022-12-03T22:40:20.132Z,27.83
2022-12-03T22:42:51.049Z,33.08
2022-12-03T22:45:21.236Z,33.15
2022-12-03T22:47:50.769Z,30.08
2022-12-03T22:50:20.560Z,29.80
2022-12-03T22:52:51.437Z,31.30
2022-12-03T22:55:21.750Z,29.50
2022-12-03T22:57:51.773Z,28.80
2022-12-03T23:00:30.944Z,27.92
2022-12-03T23:03:01.154Z,29.58
2022-12-03T23:05:37.944Z,28.83
2022-12-03T23:08:08.745Z,27.98
2022-12-03T23:10:39.078Z,29.23
2022-12-03T23:13:09.521Z,28.38
2022-12-03T23:15:39.616Z,29.45
2022-12-03T23:18:09.324Z,30.90
2022-12-03T23:20:43.837Z,27.90
2022-12-03T23:23:15.045Z,28.70
2022-12-03T23:25:45.453Z,30.42
2022-12-03T23:28:15.181Z,28.70
2022-12-03T23:30:45.212Z,28.30
2022-12-03T23:33:15.935Z,29.00
2022-12-03T23:35:46.739Z,28.17
2022-12-03T23:38:16.423Z,28.15
2022-12-03T23:40:48.230Z,27.98
2022-12-03T23:43:19.074Z,30.20
2022-12-03T23:45:49.296Z,27.73
2022-12-03T23:48:18.984Z,26.80
2022-12-03T23:50:49.147Z,29.23
2022-12-03T23:53:18.684Z,26.80
2022-12-03T23:55:48.645Z,23.88
2022-12-03T23:58:18.218Z,25.70
